This is the latest recevied weather packets stored in our database for station/object eb1ayw-13. If no packets are shown the sender has not sent any weather packets the latest 10 day(s).
| Time | Temp. | Humidity | Pressure | Rain* | Wind** | Luminosity | Snow |
|---|---|---|---|---|---|---|---|
| 1777800467 | 45.56° C | 14% | 1001.3 hPa | - | - | - | - |
| 1777799868 | 45° C | 14% | 1001.4 hPa | - | - | - | - |
| 1777799268 | 46.67° C | 12% | 1001.1 hPa | - | - | - | - |
| 1777798667 | 45° C | 14% | 1001.5 hPa | - | - | - | - |
| 1777797468 | 46.67° C | 14% | 1001.5 hPa | - | - | - | - |
| 1777796867 | 47.22° C | 13% | 1001.3 hPa | - | - | - | - |
| 1777796267 | 47.22° C | 13% | 1001.2 hPa | - | - | - | - |
| 1777795668 | 45.56° C | 15% | 1001.6 hPa | - | - | - | - |
| 1777794467 | 44.44° C | 15% | 1001.9 hPa | - | - | - | - |
| 1777793267 | 45° C | 16% | 1002 hPa | - | - | - | - |
| 1777792667 | 44.44° C | 16% | 1001.9 hPa | - | - | - | - |
| 1777792067 | 42.78° C | 17% | 1002.3 hPa | - | - | - | - |
| 1777791467 | 42.22° C | 18% | 1002.4 hPa | - | - | - | - |
| 1777790867 | 42.22° C | 17% | 1002.3 hPa | - | - | - | - |
| 1777790268 | 45.56° C | 15% | 1001.6 hPa | - | - | - | - |
| 1777789667 | 43.33° C | 17% | 1001.9 hPa | - | - | - | - |
| 1777788467 | 45° C | 15% | 1001.5 hPa | - | - | - | - |
| 1777787867 | 45° C | 15% | 1001.4 hPa | - | - | - | - |
| 1777787267 | 45° C | 16% | 1001.6 hPa | - | - | - | - |
| 1777786667 | 43.89° C | 16% | 1001.7 hPa | - | - | - | - |
| 1777786067 | 42.78° C | 17% | 1002.1 hPa | - | - | - | - |
| 1777785467 | 43.33° C | 17% | 1001.9 hPa | - | - | - | - |
| 1777784867 | 44.44° C | 16% | 1001.6 hPa | - | - | - | - |
| 1777784267 | 41.11° C | 18% | 1002.3 hPa | - | - | - | - |
| 1777783668 | 41.67° C | 18% | 1002.4 hPa | - | - | - | - |
* Rain since midnight (hover to see other rain measurements)
** Current wind speed in m/s (hover to see current wind gust speed)